Time;durP1;ratioP1;P1;durP2;ratioP2;P2;SDS_P1;SDS_P2;PMS_P1;PMS_P2;Temp;Humidity;BMP_temperature;BMP_pressure;BME280_temperature;BME280_humidity;BME280_pressure;Samples;Min_cycle;Max_cycle;Signal;HPM_P1;HPM_P2
2021/07/12 00:00:23;;;;;;;6.10;2.30;;;19.30;99.90;;;;;;5115220;28;20047;-87
2021/07/12 00:02:49;;;;;;;7.68;3.20;;;19.30;99.90;;;;;;5116416;28;20035;-87
2021/07/12 00:05:16;;;;;;;8.25;2.85;;;19.30;99.90;;;;;;5117096;27;20066;-86
2021/07/12 00:07:42;;;;;;;7.45;2.83;;;19.20;99.90;;;;;;5112663;28;20035;-86
2021/07/12 00:10:10;;;;;;;12.77;2.70;;;19.10;99.90;;;;;;5115805;28;20431;-86
2021/07/12 00:12:36;;;;;;;4.25;2.17;;;19.10;99.90;;;;;;5111792;28;20118;-85
2021/07/12 00:15:05;;;;;;;8.38;2.88;;;19.00;99.90;;;;;;5104926;28;20032;-86
2021/07/12 00:17:31;;;;;;;7.90;3.53;;;19.00;99.90;;;;;;5127004;28;20046;-86
2021/07/12 00:19:56;;;;;;;5.88;2.42;;;19.00;99.90;;;;;;5111440;28;20126;-87
2021/07/12 00:22:22;;;;;;;8.57;2.70;;;19.00;99.90;;;;;;5110566;28;20039;-86
2021/07/12 00:24:47;;;;;;;8.32;2.63;;;18.90;99.90;;;;;;5114524;28;20046;-86
2021/07/12 00:27:13;;;;;;;17.90;4.22;;;18.80;99.90;;;;;;5112511;28;20031;-87
2021/07/12 00:29:38;;;;;;;7.63;2.47;;;18.80;99.90;;;;;;5115937;28;20444;-86
2021/07/12 00:32:04;;;;;;;10.52;2.83;;;18.80;99.90;;;;;;5112192;28;20049;-87
2021/07/12 00:34:30;;;;;;;11.32;3.03;;;18.80;99.90;;;;;;5116314;28;20036;-87
2021/07/12 00:36:55;;;;;;;17.08;3.97;;;18.80;99.90;;;;;;5102947;28;20463;-87
2021/07/12 00:39:21;;;;;;;9.23;2.63;;;18.70;99.90;;;;;;5115425;28;20049;-87
2021/07/12 00:41:46;;;;;;;7.65;3.30;;;18.70;99.90;;;;;;5117630;28;20052;-88
2021/07/12 00:44:12;;;;;;;7.38;2.97;;;18.70;99.90;;;;;;5115063;28;20058;-85
2021/07/12 00:46:37;;;;;;;6.18;2.42;;;18.70;99.90;;;;;;5108726;28;20051;-86
2021/07/12 00:49:03;;;;;;;10.23;3.45;;;18.70;99.90;;;;;;5115415;28;20035;-87
2021/07/12 00:51:29;;;;;;;10.52;2.85;;;18.70;99.90;;;;;;5120279;28;20047;-87
2021/07/12 00:53:54;;;;;;;10.45;3.28;;;18.60;99.90;;;;;;5109087;28;20036;-87
2021/07/12 00:56:20;;;;;;;11.05;2.47;;;18.70;99.90;;;;;;5132816;28;20055;-86
2021/07/12 00:58:46;;;;;;;6.32;2.60;;;18.60;99.90;;;;;;5126006;28;20035;-86
2021/07/12 01:01:12;;;;;;;9.25;2.25;;;18.60;99.90;;;;;;5118619;28;20042;-86
2021/07/12 01:03:38;;;;;;;9.20;2.92;;;18.60;99.90;;;;;;5134511;28;20413;-87
2021/07/12 01:06:05;;;;;;;6.65;2.33;;;18.60;99.90;;;;;;5121306;28;20039;-86
2021/07/12 01:08:30;;;;;;;14.63;3.35;;;18.60;99.90;;;;;;5120047;27;20039;-86
2021/07/12 01:11:25;;;;;;;8.93;3.13;;;18.50;99.90;;;;;;5117107;28;20252;-86
2021/07/12 01:13:59;;;;;;;6.00;2.63;;;18.50;99.90;;;;;;5101180;28;20046;-86
2021/07/12 01:16:43;;;;;;;9.02;2.13;;;18.50;99.90;;;;;;5106915;28;20036;-86
2021/07/12 01:19:33;;;;;;;10.80;2.47;;;18.50;99.90;;;;;;5104919;28;20283;-87
2021/07/12 01:22:27;;;;;;;10.20;2.83;;;18.50;99.90;;;;;;5111646;28;20394;-87
2021/07/12 01:25:33;;;;;;;8.20;2.28;;;18.50;99.90;;;;;;5120314;28;20119;-87
2021/07/12 01:28:36;;;;;;;8.52;2.35;;;18.50;99.90;;;;;;5113940;28;20094;-86
2021/07/12 01:31:05;;;;;;;;;;;18.40;99.90;;;;;;5113990;28;20127;-87
2021/07/12 01:34:00;;;;;;;8.65;2.70;;;18.40;99.90;;;;;;5116705;28;19912;-86
2021/07/12 01:36:49;;;;;;;10.80;2.10;;;18.40;99.90;;;;;;5119785;28;20035;-86
2021/07/12 01:39:21;;;;;;;7.32;2.67;;;18.40;99.90;;;;;;5118518;28;20086;-86
2021/07/12 01:42:00;;;;;;;10.87;2.73;;;18.30;99.90;;;;;;5119955;28;20122;-86
2021/07/12 01:44:43;;;;;;;18.27;2.90;;;18.30;99.90;;;;;;5113020;28;20363;-86
2021/07/12 01:47:14;;;;;;;5.63;3.03;;;18.30;99.90;;;;;;5122639;28;20064;-87
2021/07/12 01:50:01;;;;;;;12.32;2.42;;;18.30;99.90;;;;;;5123240;28;20039;-88
2021/07/12 01:52:34;;;;;;;11.90;2.67;;;18.30;99.90;;;;;;5111653;28;20585;-87
2021/07/12 01:55:06;;;;;;;9.70;2.80;;;18.30;99.90;;;;;;5113083;28;20032;-87
2021/07/12 01:57:40;;;;;;;7.32;3.10;;;18.20;99.90;;;;;;5104159;28;20077;-87
2021/07/12 02:00:08;;;;;;;8.30;2.70;;;18.20;99.90;;;;;;5121746;28;20054;-87
2021/07/12 02:02:34;;;;;;;7.28;3.00;;;18.20;99.90;;;;;;5122479;28;20035;-87
2021/07/12 02:05:05;;;;;;;11.80;2.70;;;18.30;99.90;;;;;;5112348;28;20483;-87
2021/07/12 02:07:32;;;;;;;7.93;2.60;;;18.20;99.90;;;;;;5115353;28;20040;-85
2021/07/12 02:10:00;;;;;;;8.65;2.95;;;18.20;99.90;;;;;;5112715;28;20310;-86
2021/07/12 02:12:28;;;;;;;13.55;2.90;;;18.20;99.90;;;;;;5118814;28;20036;-87
2021/07/12 02:14:54;;;;;;;2.95;2.65;;;18.20;99.90;;;;;;5114946;28;20290;-87
2021/07/12 02:17:24;;;;;;;10.73;2.63;;;18.20;99.90;;;;;;5116444;28;20042;-85
2021/07/12 02:19:50;;;;;;;12.50;2.55;;;18.20;99.90;;;;;;5107356;28;20463;-85
2021/07/12 02:22:16;;;;;;;10.05;2.42;;;18.20;99.90;;;;;;5117511;28;20288;-86
2021/07/12 02:24:44;;;;;;;24.17;3.80;;;18.20;99.90;;;;;;5113640;28;20039;-86
2021/07/12 02:27:10;;;;;;;11.75;3.05;;;18.20;99.90;;;;;;5115567;28;20040;-89
2021/07/12 02:29:36;;;;;;;7.25;2.60;;;18.20;99.90;;;;;;5115986;28;20382;-86
2021/07/12 02:32:02;;;;;;;6.78;2.45;;;18.20;99.90;;;;;;5112443;28;20123;-85
2021/07/12 02:34:29;;;;;;;6.70;3.00;;;18.10;99.90;;;;;;5117505;28;20047;-86
2021/07/12 02:36:56;;;;;;;8.07;2.72;;;18.20;99.90;;;;;;5117438;28;20031;-87
2021/07/12 02:39:22;;;;;;;5.28;2.85;;;18.10;99.90;;;;;;5130029;28;20098;-86
2021/07/12 02:41:48;;;;;;;8.88;2.63;;;18.20;99.90;;;;;;5110480;28;20044;-87
2021/07/12 02:44:15;;;;;;;7.03;2.67;;;18.20;99.90;;;;;;5100382;28;20040;-86
2021/07/12 02:46:41;;;;;;;10.75;2.90;;;18.20;99.90;;;;;;5109353;28;20040;-87
2021/07/12 02:49:08;;;;;;;5.35;2.88;;;18.10;99.90;;;;;;5112210;28;20044;-85
2021/07/12 02:51:55;;;;;;;8.68;3.25;;;18.20;99.90;;;;;;5117145;28;20039;-87
2021/07/12 02:54:24;;;;;;;8.90;3.05;;;18.10;99.90;;;;;;5107775;28;20123;-87
2021/07/12 02:56:50;;;;;;;7.18;3.25;;;18.10;99.90;;;;;;5116134;28;20118;-86
2021/07/12 02:59:17;;;;;;;5.90;2.75;;;18.10;99.90;;;;;;5112938;28;20114;-87
2021/07/12 03:01:43;;;;;;;8.23;3.60;;;18.10;99.90;;;;;;5107064;28;20032;-86
2021/07/12 03:04:08;;;;;;;6.03;2.83;;;18.10;99.90;;;;;;5112584;28;20040;-87
2021/07/12 03:06:34;;;;;;;7.28;2.88;;;18.10;99.90;;;;;;5115103;28;20032;-86
2021/07/12 03:09:07;;;;;;;4.45;3.05;;;18.10;99.90;;;;;;5117039;28;20054;-87
2021/07/12 03:11:41;;;;;;;12.43;3.42;;;18.10;99.90;;;;;;5116123;28;20040;-87
2021/07/12 03:14:14;;;;;;;7.68;3.60;;;18.10;99.90;;;;;;5116525;28;20027;-86
2021/07/12 03:16:41;;;;;;;8.40;3.47;;;18.10;99.90;;;;;;5117321;28;20111;-87
2021/07/12 03:19:14;;;;;;;10.10;2.60;;;18.10;99.90;;;;;;5118336;28;20035;-87
2021/07/12 03:21:42;;;;;;;9.35;3.22;;;18.10;99.90;;;;;;5112954;28;20120;-87
2021/07/12 03:24:08;;;;;;;6.00;2.72;;;18.10;99.90;;;;;;5125289;28;20047;-87
2021/07/12 03:26:40;;;;;;;7.53;3.08;;;18.10;99.90;;;;;;5119040;28;20036;-87
2021/07/12 03:29:06;;;;;;;9.60;2.97;;;18.00;99.90;;;;;;5116238;28;20123;-87
2021/07/12 03:31:32;;;;;;;7.68;2.78;;;18.00;99.90;;;;;;5123014;28;20610;-87
2021/07/12 03:33:59;;;;;;;15.80;4.38;;;18.00;99.90;;;;;;5123926;28;20047;-87
2021/07/12 03:36:29;;;;;;;7.13;3.60;;;18.00;99.90;;;;;;5115675;28;20046;-87
2021/07/12 03:38:55;;;;;;;9.90;3.10;;;18.00;99.90;;;;;;5116833;28;20042;-87
2021/07/12 03:41:21;;;;;;;8.15;3.17;;;18.00;99.90;;;;;;5119963;28;20096;-86
2021/07/12 03:43:47;;;;;;;6.68;3.20;;;18.00;99.90;;;;;;5112299;28;20139;-84
2021/07/12 03:46:12;;;;;;;14.45;2.92;;;18.00;99.90;;;;;;5117975;28;20075;-86
2021/07/12 03:48:43;;;;;;;10.07;4.10;;;18.00;99.90;;;;;;5116941;28;20046;-86
2021/07/12 03:51:12;;;;;;;9.23;3.15;;;18.00;99.90;;;;;;5115375;28;20039;-86
2021/07/12 03:53:38;;;;;;;10.20;3.00;;;18.00;99.90;;;;;;5114473;28;20042;-86
2021/07/12 03:56:04;;;;;;;4.68;3.38;;;18.00;99.90;;;;;;5111667;28;20027;-86
2021/07/12 03:58:30;;;;;;;4.68;3.10;;;18.10;99.90;;;;;;5127133;28;20039;-87
2021/07/12 04:00:56;;;;;;;9.23;3.45;;;18.00;99.90;;;;;;5112317;28;20043;-87
2021/07/12 04:03:21;;;;;;;13.85;3.67;;;18.00;99.90;;;;;;5115210;28;20280;-86
2021/07/12 04:05:47;;;;;;;9.85;3.83;;;18.10;99.90;;;;;;5115017;28;20140;-86
2021/07/12 04:08:12;;;;;;;8.70;3.28;;;18.00;99.90;;;;;;5110621;28;20059;-86
2021/07/12 04:10:38;;;;;;;8.07;3.15;;;18.10;99.90;;;;;;5109969;28;20294;-86
2021/07/12 04:13:05;;;;;;;11.27;3.72;;;18.10;99.90;;;;;;5112507;28;20043;-87
2021/07/12 04:15:30;;;;;;;8.32;3.20;;;18.10;99.90;;;;;;5113564;28;20122;-87
2021/07/12 04:17:56;;;;;;;9.32;3.15;;;18.10;99.90;;;;;;5116091;28;20059;-87
2021/07/12 04:20:21;;;;;;;8.10;3.50;;;18.10;99.90;;;;;;5115799;28;20088;-87
2021/07/12 04:22:47;;;;;;;5.65;3.33;;;18.10;99.90;;;;;;5115879;28;20303;-87
2021/07/12 04:25:13;;;;;;;9.18;3.70;;;18.10;99.90;;;;;;5110248;28;20071;-86
2021/07/12 04:27:39;;;;;;;10.73;3.05;;;18.20;99.90;;;;;;5109570;28;20118;-87
2021/07/12 04:30:06;;;;;;;15.20;3.30;;;18.20;99.90;;;;;;5116189;28;20118;-87
2021/07/12 04:32:32;;;;;;;8.15;3.20;;;18.20;99.90;;;;;;5119579;28;20118;-87
2021/07/12 04:34:57;;;;;;;12.55;3.47;;;18.20;99.90;;;;;;5109111;28;20122;-86
2021/07/12 04:37:23;;;;;;;6.50;2.67;;;18.30;99.90;;;;;;5108613;28;20127;-86
2021/07/12 04:39:49;;;;;;;9.90;3.65;;;18.30;99.90;;;;;;5100362;28;20088;-86
2021/07/12 04:42:14;;;;;;;10.07;3.20;;;18.40;99.90;;;;;;5112859;28;20032;-86
2021/07/12 04:44:42;;;;;;;8.55;3.65;;;18.50;99.90;;;;;;5113685;28;20032;-85
2021/07/12 04:47:08;;;;;;;11.07;3.13;;;18.50;99.90;;;;;;5114259;28;20028;-85
2021/07/12 04:49:34;;;;;;;8.63;3.17;;;18.60;99.90;;;;;;5111684;28;20117;-87
2021/07/12 04:52:00;;;;;;;6.90;2.90;;;18.60;99.90;;;;;;5115662;28;20700;-86
2021/07/12 04:54:26;;;;;;;9.77;3.70;;;18.60;99.90;;;;;;5113181;28;20120;-86
2021/07/12 04:56:51;;;;;;;8.90;3.88;;;18.60;99.90;;;;;;5103497;28;20028;-87
2021/07/12 04:59:24;;;;;;;9.55;2.60;;;18.60;99.90;;;;;;5108383;28;20169;-87
2021/07/12 05:01:49;;;;;;;9.52;2.70;;;18.60;99.90;;;;;;5113923;28;20027;-87
2021/07/12 05:04:15;;;;;;;14.27;3.75;;;18.70;99.90;;;;;;5114282;28;20020;-86
2021/07/12 05:06:41;;;;;;;10.73;2.75;;;18.70;99.90;;;;;;5122613;28;20043;-86
2021/07/12 05:09:06;;;;;;;10.77;2.78;;;18.80;99.90;;;;;;5114420;28;20294;-87
2021/07/12 05:11:33;;;;;;;11.02;2.15;;;18.80;99.90;;;;;;5118795;28;20092;-88
2021/07/12 05:13:59;;;;;;;6.22;3.33;;;19.00;99.90;;;;;;5113061;28;20031;-86
2021/07/12 05:16:25;;;;;;;6.15;3.70;;;19.10;99.90;;;;;;5118691;28;20496;-86
2021/07/12 05:18:51;;;;;;;9.30;2.70;;;19.20;99.90;;;;;;5123346;28;20036;-87
2021/07/12 05:21:16;;;;;;;5.00;2.47;;;19.30;99.90;;;;;;5105977;28;20066;-87
2021/07/12 05:23:44;;;;;;;10.00;3.85;;;19.40;99.90;;;;;;5114291;28;20036;-89
2021/07/12 05:26:09;;;;;;;7.50;2.75;;;19.50;99.90;;;;;;5112275;28;20046;-86
2021/07/12 05:28:37;;;;;;;7.28;2.58;;;19.60;99.60;;;;;;5118185;28;20366;-88
2021/07/12 05:31:06;;;;;;;4.60;2.83;;;19.60;99.50;;;;;;5117103;28;20044;-88
2021/07/12 05:33:32;;;;;;;9.88;2.83;;;19.70;99.30;;;;;;5113481;28;20106;-87
2021/07/12 05:35:57;;;;;;;7.18;2.25;;;19.60;99.30;;;;;;5107219;28;20091;-88
2021/07/12 05:38:23;;;;;;;3.15;2.55;;;19.60;99.40;;;;;;5106534;28;20286;-87
2021/07/12 05:40:48;;;;;;;5.60;2.80;;;19.70;99.40;;;;;;5118051;28;20096;-87
2021/07/12 05:43:14;;;;;;;7.78;2.70;;;19.70;99.30;;;;;;5115579;28;20120;-87
2021/07/12 05:45:39;;;;;;;12.20;3.28;;;19.70;99.00;;;;;;5118095;28;20048;-87
2021/07/12 05:48:06;;;;;;;5.15;2.55;;;19.70;99.10;;;;;;5111619;28;20035;-86
2021/07/12 05:50:31;;;;;;;10.07;2.33;;;19.70;99.10;;;;;;5121912;28;20111;-87
2021/07/12 05:52:57;;;;;;;11.32;2.70;;;19.70;99.10;;;;;;5118014;28;20039;-86
2021/07/12 05:55:22;;;;;;;7.00;2.50;;;19.70;99.00;;;;;;5102556;28;20310;-86
2021/07/12 05:57:48;;;;;;;7.05;2.55;;;19.70;99.10;;;;;;5119313;28;20093;-88
2021/07/12 06:00:14;;;;;;;9.25;3.03;;;19.70;99.10;;;;;;5115216;28;20032;-86
2021/07/12 06:02:40;;;;;;;7.20;3.00;;;19.80;99.20;;;;;;5118287;28;20401;-87
2021/07/12 06:05:07;;;;;;;5.72;2.55;;;19.80;99.10;;;;;;5119401;28;20302;-86
2021/07/12 06:07:32;;;;;;;9.27;2.72;;;19.90;99.10;;;;;;5105697;28;20529;-86
2021/07/12 06:09:57;;;;;;;4.03;2.70;;;19.90;99.20;;;;;;5120466;28;20039;-87
2021/07/12 06:12:23;;;;;;;7.20;2.88;;;20.00;99.10;;;;;;5118948;28;20039;-88
2021/07/12 06:14:49;;;;;;;8.38;3.00;;;20.10;99.30;;;;;;5120449;28;20070;-86
2021/07/12 06:17:14;;;;;;;4.03;2.70;;;20.20;98.80;;;;;;5105020;28;20084;-86
2021/07/12 06:19:40;;;;;;;7.22;2.65;;;20.20;98.90;;;;;;5116874;28;20112;-87
2021/07/12 06:22:05;;;;;;;6.85;2.15;;;20.30;98.70;;;;;;5116440;28;20043;-86
2021/07/12 06:24:31;;;;;;;6.38;2.83;;;20.40;98.10;;;;;;5116089;28;20134;-85
2021/07/12 06:26:57;;;;;;;9.80;2.47;;;20.40;97.60;;;;;;5113985;28;20130;-86
2021/07/12 06:29:22;;;;;;;15.68;3.00;;;20.40;97.80;;;;;;5106549;28;20067;-86
2021/07/12 06:31:49;;;;;;;6.97;2.17;;;20.40;97.70;;;;;;5114817;28;20491;-87
2021/07/12 06:34:14;;;;;;;3.17;2.38;;;20.50;98.00;;;;;;5116229;28;20036;-85
2021/07/12 06:36:40;;;;;;;5.47;2.47;;;20.60;97.70;;;;;;5117244;28;20040;-85
2021/07/12 06:39:06;;;;;;;7.35;2.75;;;20.60;97.60;;;;;;5104188;28;20128;-87
2021/07/12 06:41:32;;;;;;;4.40;2.38;;;20.60;97.60;;;;;;5110858;28;20040;-86
2021/07/12 06:43:58;;;;;;;3.30;2.20;;;20.70;97.80;;;;;;5121092;28;20077;-85
2021/07/12 06:46:23;;;;;;;2.60;2.15;;;20.80;97.80;;;;;;5116975;28;20421;-86
2021/07/12 06:48:49;;;;;;;3.95;2.85;;;20.80;97.60;;;;;;5109655;28;20044;-87
2021/07/12 06:51:14;;;;;;;5.78;1.88;;;20.90;97.00;;;;;;5115649;28;20047;-86
2021/07/12 06:53:40;;;;;;;7.65;2.53;;;21.00;96.80;;;;;;5116345;28;20040;-86
2021/07/12 06:56:05;;;;;;;6.57;1.88;;;21.00;96.60;;;;;;5116087;28;20364;-87
2021/07/12 06:58:31;;;;;;;3.60;2.25;;;21.00;96.60;;;;;;5115906;28;20122;-86
2021/07/12 07:00:57;;;;;;;3.03;2.00;;;21.10;96.40;;;;;;5116652;28;20035;-88
2021/07/12 07:03:22;;;;;;;9.18;2.35;;;21.10;95.50;;;;;;5112474;28;20043;-87
2021/07/12 07:05:48;;;;;;;7.07;1.65;;;21.20;95.60;;;;;;5116136;28;20042;-87
2021/07/12 07:08:13;;;;;;;8.10;1.90;;;21.30;96.00;;;;;;5104655;28;20103;-88
2021/07/12 07:10:39;;;;;;;3.00;2.00;;;21.40;96.10;;;;;;5111255;28;20684;-87
2021/07/12 07:13:04;;;;;;;2.83;2.05;;;21.50;96.00;;;;;;5115130;28;20035;-87
2021/07/12 07:15:30;;;;;;;2.25;1.67;;;21.60;95.20;;;;;;5111699;28;20515;-86
2021/07/12 07:17:56;;;;;;;5.80;1.88;;;21.70;94.90;;;;;;5115624;28;20043;-88
2021/07/12 07:20:21;;;;;;;5.75;2.03;;;21.70;95.20;;;;;;5117458;28;20049;-86
2021/07/12 07:22:47;;;;;;;4.18;1.70;;;21.80;95.50;;;;;;5115001;28;20130;-87
2021/07/12 07:25:13;;;;;;;1.70;1.60;;;21.90;95.30;;;;;;5116449;28;20043;-88
2021/07/12 07:27:40;;;;;;;4.25;2.00;;;22.00;95.60;;;;;;5115728;28;20108;-87
2021/07/12 07:30:06;;;;;;;4.55;2.00;;;22.10;94.70;;;;;;5117256;28;20039;-88
2021/07/12 07:32:33;;;;;;;2.65;1.83;;;22.20;94.50;;;;;;5117065;27;20042;-87
2021/07/12 07:34:58;;;;;;;1.70;1.60;;;22.30;93.80;;;;;;5116309;28;20031;-85
2021/07/12 07:37:24;;;;;;;3.38;1.50;;;22.30;93.90;;;;;;5116147;28;20084;-85
2021/07/12 07:39:49;;;;;;;5.70;1.60;;;22.40;94.50;;;;;;5115529;28;20294;-86
2021/07/12 07:45:43;;;;;;;4.80;1.48;;;22.80;94.40;;;;;;5100001;28;20030;-92
2021/07/12 07:48:09;;;;;;;3.30;1.65;;;23.00;93.10;;;;;;5109133;28;20035;-87
2021/07/12 07:50:39;;;;;;;3.40;1.83;;;23.00;92.90;;;;;;5111649;28;20035;-87
2021/07/12 07:53:06;;;;;;;2.30;1.67;;;23.10;93.00;;;;;;5112615;28;20032;-86
2021/07/12 07:55:32;;;;;;;4.47;1.75;;;23.20;92.60;;;;;;5101348;28;20402;-88
2021/07/12 07:57:57;;;;;;;1.60;1.30;;;23.30;93.50;;;;;;5094902;28;20458;-87
2021/07/12 08:00:24;;;;;;;6.28;1.80;;;23.40;91.90;;;;;;5113223;28;20435;-87
2021/07/12 08:02:50;;;;;;;2.88;1.38;;;23.50;91.20;;;;;;5095966;28;20299;-86
2021/07/12 08:05:16;;;;;;;1.65;1.30;;;23.60;91.20;;;;;;5101345;28;20044;-87
2021/07/12 08:07:42;;;;;;;2.60;1.38;;;23.60;91.50;;;;;;5114936;28;20398;-87
2021/07/12 08:10:10;;;;;;;2.40;1.70;;;23.70;91.60;;;;;;5113896;28;20035;-86
2021/07/12 08:12:36;;;;;;;3.03;1.60;;;23.70;91.70;;;;;;5094729;28;20092;-86
2021/07/12 08:15:03;;;;;;;3.65;1.30;;;23.80;91.90;;;;;;5094897;28;20299;-85
2021/07/12 08:17:28;;;;;;;2.35;1.33;;;23.80;91.30;;;;;;5111049;28;20027;-85
2021/07/12 08:19:54;;;;;;;3.47;1.73;;;23.90;91.10;;;;;;5116381;28;20100;-86
2021/07/12 08:22:19;;;;;;;2.00;1.48;;;24.00;90.90;;;;;;5119763;28;20036;-86
2021/07/12 08:24:44;;;;;;;1.73;1.55;;;24.00;91.30;;;;;;5121280;28;20035;-86
2021/07/12 08:27:10;;;;;;;2.30;1.23;;;24.10;91.10;;;;;;5117550;28;20046;-86
2021/07/12 08:29:35;;;;;;;5.78;1.77;;;24.30;90.90;;;;;;5119142;28;20415;-86
2021/07/12 08:32:01;;;;;;;2.47;1.48;;;24.50;89.80;;;;;;5101830;28;20122;-87
2021/07/12 08:34:27;;;;;;;2.85;1.58;;;24.70;90.10;;;;;;5114253;28;20299;-88
2021/07/12 08:36:52;;;;;;;3.67;1.65;;;24.90;89.90;;;;;;5111137;28;20055;-87
2021/07/12 08:39:20;;;;;;;2.25;1.23;;;25.10;89.60;;;;;;5116528;28;20327;-88
2021/07/12 08:41:45;;;;;;;2.88;1.25;;;25.20;89.20;;;;;;5115372;28;20042;-87
2021/07/12 08:44:11;;;;;;;3.25;1.30;;;25.10;88.90;;;;;;5121706;28;20355;-87
2021/07/12 08:46:37;;;;;;;4.20;1.92;;;25.10;89.00;;;;;;5116991;28;20224;-86
2021/07/12 08:49:02;;;;;;;3.28;1.30;;;25.00;89.50;;;;;;5115973;28;20318;-86
2021/07/12 08:51:28;;;;;;;2.33;1.58;;;25.00;90.30;;;;;;5114983;28;20048;-86
2021/07/12 08:53:55;;;;;;;2.58;1.40;;;25.00;88.20;;;;;;5114772;28;20047;-89
2021/07/12 08:56:20;;;;;;;2.85;1.60;;;24.90;88.30;;;;;;5115721;28;20039;-88
2021/07/12 08:58:46;;;;;;;3.33;1.48;;;25.00;87.90;;;;;;5116060;28;20276;-87
2021/07/12 09:01:12;;;;;;;1.15;1.00;;;25.10;88.10;;;;;;5118622;28;20035;-87
2021/07/12 09:03:38;;;;;;;6.75;0.95;;;25.20;87.50;;;;;;5120968;28;20051;-88
2021/07/12 09:06:04;;;;;;;1.88;1.00;;;25.30;86.30;;;;;;5104440;28;20036;-89
2021/07/12 09:08:56;;;;;;;3.60;1.33;;;25.50;85.90;;;;;;5099128;28;20434;-87
2021/07/12 09:11:32;;;;;;;5.28;1.65;;;25.60;87.40;;;;;;5110845;28;20406;-87
2021/07/12 09:14:03;;;;;;;1.67;1.40;;;25.70;84.60;;;;;;5118247;28;20279;-88
2021/07/12 09:16:59;;;;;;;3.35;1.20;;;25.70;84.00;;;;;;5120330;28;20046;-88
2021/07/12 09:19:30;;;;;;;2.22;1.40;;;25.60;84.60;;;;;;5128751;28;20040;-89
2021/07/12 09:22:15;;;;;;;1.65;1.30;;;25.70;88.60;;;;;;5120417;28;20039;-87
2021/07/12 09:24:49;;;;;;;3.03;1.35;;;25.90;84.50;;;;;;5119177;28;20039;-86
2021/07/12 09:27:19;;;;;;;2.42;1.17;;;26.00;83.80;;;;;;5119628;28;20043;-86
2021/07/12 09:29:49;;;;;;;1.45;0.80;;;26.10;84.10;;;;;;5098023;28;20032;-87
2021/07/12 09:32:17;;;;;;;1.17;1.08;;;26.30;82.70;;;;;;5099321;28;20051;-87
2021/07/12 09:34:46;;;;;;;1.25;1.10;;;26.40;82.40;;;;;;5107703;28;20046;-88
2021/07/12 09:37:14;;;;;;;1.38;1.00;;;26.50;81.00;;;;;;5100444;28;20072;-88
2021/07/12 09:39:47;;;;;;;3.55;1.20;;;26.70;81.60;;;;;;5098663;28;20040;-87
2021/07/12 09:42:22;;;;;;;3.50;0.93;;;26.80;80.70;;;;;;5098553;28;20124;-88
2021/07/12 09:45:10;;;;;;;1.75;1.08;;;26.90;80.10;;;;;;5098851;28;20055;-88
2021/07/12 09:47:38;;;;;;;1.73;1.00;;;27.00;79.50;;;;;;5099873;28;20039;-88
2021/07/12 09:50:03;;;;;;;2.97;1.05;;;27.20;81.00;;;;;;5099802;28;20047;-89
2021/07/12 09:52:37;;;;;;;4.18;1.08;;;27.30;81.40;;;;;;5117254;28;20035;-88
2021/07/12 09:55:03;;;;;;;2.75;0.70;;;27.40;80.30;;;;;;5123645;28;20071;-86
2021/07/12 09:57:29;;;;;;;2.22;0.82;;;27.60;79.50;;;;;;5118767;28;20071;-86
2021/07/12 10:00:00;;;;;;;1.55;1.00;;;27.60;80.20;;;;;;5118852;28;20051;-87
2021/07/12 10:02:28;;;;;;;3.10;1.10;;;27.70;80.00;;;;;;5123804;28;20031;-87
2021/07/12 10:05:16;;;;;;;1.05;0.75;;;27.80;82.20;;;;;;5110488;28;20043;-86
2021/07/12 10:07:42;;;;;;;1.10;0.80;;;27.80;76.40;;;;;;5097763;28;20126;-86
2021/07/12 10:10:16;;;;;;;5.65;1.17;;;27.70;78.20;;;;;;5106863;28;20311;-88
2021/07/12 10:12:45;;;;;;;2.05;0.88;;;27.60;77.50;;;;;;5097250;28;20036;-86
2021/07/12 10:15:15;;;;;;;1.20;1.10;;;27.40;77.00;;;;;;5104826;28;20039;-85
2021/07/12 10:17:44;;;;;;;1.30;0.90;;;27.40;81.10;;;;;;5122249;28;20032;-87
2021/07/12 10:20:10;;;;;;;0.75;0.70;;;27.30;80.20;;;;;;5122871;28;20455;-87
2021/07/12 10:22:39;;;;;;;2.05;0.90;;;27.30;78.10;;;;;;5118160;28;20519;-87
2021/07/12 10:25:15;;;;;;;1.35;0.90;;;27.20;77.80;;;;;;5117986;28;20150;-87
2021/07/12 10:27:52;;;;;;;1.67;0.68;;;27.10;78.40;;;;;;5112225;28;20096;-87
2021/07/12 10:30:39;;;;;;;2.17;1.10;;;27.10;79.80;;;;;;5114981;28;20078;-86
2021/07/12 10:33:08;;;;;;;2.83;0.93;;;27.00;80.30;;;;;;5097570;28;20118;-85
2021/07/12 10:35:46;;;;;;;1.20;0.85;;;27.10;83.70;;;;;;5104016;28;20031;-86
2021/07/12 10:38:14;;;;;;;0.82;0.70;;;27.30;80.80;;;;;;5117025;28;20302;-86
2021/07/12 10:40:46;;;;;;;1.70;0.73;;;27.60;79.80;;;;;;5103754;28;20633;-86
2021/07/12 10:43:11;;;;;;;0.90;0.70;;;27.80;78.50;;;;;;5096869;28;20040;-88
2021/07/12 10:45:41;;;;;;;0.98;0.85;;;27.90;77.90;;;;;;5103687;28;20326;-87
2021/07/12 10:48:12;;;;;;;1.10;0.70;;;28.00;75.40;;;;;;5110948;28;20114;-88
2021/07/12 10:50:43;;;;;;;2.47;0.90;;;27.90;75.90;;;;;;5096721;28;20052;-87
2021/07/12 10:53:12;;;;;;;2.65;0.68;;;27.90;77.00;;;;;;5096122;28;20093;-87
2021/07/12 10:55:37;;;;;;;2.20;0.68;;;27.80;75.20;;;;;;5101898;28;20039;-86
2021/07/12 10:58:37;;;;;;;0.80;0.70;;;27.80;74.60;;;;;;5097263;28;20032;-87
2021/07/12 11:01:08;;;;;;;2.83;0.82;;;27.90;75.20;;;;;;5047927;28;20182;-87
2021/07/12 11:03:45;;;;;;;0.70;0.63;;;28.00;75.70;;;;;;5108417;28;20386;-87
2021/07/12 11:06:20;;;;;;;1.13;0.90;;;28.20;79.60;;;;;;5121261;28;20089;-87
2021/07/12 11:08:48;;;;;;;1.25;0.77;;;28.30;76.40;;;;;;5116933;28;20309;-87
2021/07/12 11:11:20;;;;;;;0.85;0.80;;;28.50;77.30;;;;;;5117476;28;20071;-88
2021/07/12 11:13:58;;;;;;;3.45;0.88;;;28.50;76.60;;;;;;5115480;28;20130;-87
2021/07/12 11:16:35;;;;;;;1.45;0.73;;;28.70;78.40;;;;;;5117014;27;20125;-86
2021/07/12 11:19:24;;;;;;;2.20;0.68;;;28.70;74.10;;;;;;5100269;28;20032;-86
2021/07/12 11:21:51;;;;;;;0.80;0.75;;;28.70;77.10;;;;;;5116900;28;20044;-87
2021/07/12 11:24:22;;;;;;;2.00;0.82;;;28.70;77.80;;;;;;5116626;28;20128;-87
2021/07/12 11:26:50;;;;;;;2.00;0.70;;;28.80;74.70;;;;;;5108851;28;20039;-87
2021/07/12 11:29:19;;;;;;;2.00;0.93;;;28.90;75.00;;;;;;5115433;28;20054;-88
2021/07/12 11:32:07;;;;;;;1.08;0.80;;;29.00;77.20;;;;;;5108682;28;20326;-88
2021/07/12 11:34:43;;;;;;;3.40;0.77;;;29.10;73.90;;;;;;5110174;28;20071;-88
2021/07/12 11:37:09;;;;;;;0.85;0.77;;;29.10;72.90;;;;;;5096102;28;20157;-88
2021/07/12 11:39:43;;;;;;;1.25;0.80;;;29.30;71.20;;;;;;5108863;28;20036;-88
2021/07/12 11:42:16;;;;;;;0.75;0.63;;;29.30;71.00;;;;;;5105851;28;20054;-88
2021/07/12 11:44:46;;;;;;;1.25;0.90;;;29.30;71.90;;;;;;5115795;28;20035;-88
2021/07/12 11:47:23;;;;;;;0.80;0.70;;;29.20;73.70;;;;;;5097864;28;20379;-88
2021/07/12 11:49:51;;;;;;;0.90;0.80;;;29.00;71.50;;;;;;5096406;28;20050;-90
2021/07/12 11:52:17;;;;;;;1.10;1.00;;;28.80;71.00;;;;;;5096355;28;20043;-88
2021/07/12 11:54:43;;;;;;;0.95;0.70;;;28.70;73.70;;;;;;5101613;28;20099;-88
2021/07/12 11:57:15;;;;;;;0.93;0.88;;;28.60;72.30;;;;;;5105487;28;20120;-89
2021/07/12 11:59:43;;;;;;;0.90;0.90;;;28.40;76.10;;;;;;5096161;28;20040;-89
2021/07/12 12:02:14;;;;;;;0.95;0.82;;;28.30;74.20;;;;;;5100884;28;20036;-87
2021/07/12 12:04:45;;;;;;;0.93;0.60;;;28.30;73.10;;;;;;5123065;28;20136;-87
2021/07/12 12:07:21;;;;;;;2.22;0.90;;;28.50;74.30;;;;;;5107850;28;20052;-86
2021/07/12 12:09:54;;;;;;;0.98;0.88;;;28.80;71.70;;;;;;5117010;28;20147;-87
2021/07/12 12:12:25;;;;;;;1.35;0.90;;;29.00;70.00;;;;;;5116019;28;20281;-88
2021/07/12 12:14:55;;;;;;;1.05;0.88;;;29.10;70.30;;;;;;5115120;28;20039;-87
2021/07/12 12:17:21;;;;;;;4.82;1.00;;;29.30;71.00;;;;;;5105091;28;20575;-87
2021/07/12 12:20:01;;;;;;;1.10;0.73;;;29.30;71.50;;;;;;5112483;28;20038;-87
2021/07/12 12:22:27;;;;;;;0.52;0.50;;;29.40;69.50;;;;;;5115533;28;20108;-87
2021/07/12 12:24:53;;;;;;;1.20;0.70;;;29.40;70.30;;;;;;5115035;28;20325;-87
2021/07/12 12:27:19;;;;;;;0.80;0.77;;;29.40;70.20;;;;;;5116707;28;20071;-88
2021/07/12 12:29:45;;;;;;;1.40;0.85;;;29.40;70.40;;;;;;5117120;28;20444;-88
2021/07/12 12:32:10;;;;;;;2.30;0.73;;;29.30;71.80;;;;;;5113231;28;20074;-87
2021/07/12 12:34:36;;;;;;;1.00;0.70;;;29.30;72.60;;;;;;5115266;28;20050;-89
2021/07/12 12:37:04;;;;;;;2.60;0.68;;;29.20;72.90;;;;;;5120481;28;20062;-89
2021/07/12 12:39:29;;;;;;;1.05;0.85;;;29.20;69.20;;;;;;5129246;28;20074;-87
2021/07/12 12:41:57;;;;;;;2.00;0.80;;;29.20;72.50;;;;;;5128296;28;20427;-89
2021/07/12 12:44:32;;;;;;;1.52;0.85;;;29.10;70.30;;;;;;5118571;28;20104;-88
2021/07/12 12:46:59;;;;;;;1.42;0.93;;;29.00;71.10;;;;;;5119967;28;20050;-88
2021/07/12 12:49:30;;;;;;;0.90;0.90;;;28.90;69.90;;;;;;5120550;28;20306;-88
2021/07/12 12:51:58;;;;;;;1.60;1.10;;;28.80;73.40;;;;;;5120759;28;20059;-88
2021/07/12 12:54:43;;;;;;;1.65;0.65;;;28.90;69.60;;;;;;5110385;28;20151;-88
2021/07/12 12:57:10;;;;;;;1.67;0.90;;;29.10;70.30;;;;;;5101312;28;20028;-88